sensor_id;sensor_type;location;lat;lon;timestamp;P1;durP1;ratioP1;P2;durP2;ratioP2
24151;SDS011;12311;50.866;4.332;2023-04-07T05:24:27;16.02;;;5.07;;
24151;SDS011;12311;50.866;4.332;2023-04-07T05:26:53;16.15;;;5.15;;
24151;SDS011;12311;50.866;4.332;2023-04-07T05:29:20;13.45;;;4.20;;
24151;SDS011;12311;50.866;4.332;2023-04-07T05:31:46;16.30;;;4.55;;
24151;SDS011;12311;50.866;4.332;2023-04-07T05:34:11;23.75;;;5.03;;
24151;SDS011;12311;50.866;4.332;2023-04-07T05:36:37;11.93;;;4.15;;
24151;SDS011;12311;50.866;4.332;2023-04-07T05:39:03;16.17;;;4.47;;
24151;SDS011;12311;50.866;4.332;2023-04-07T05:41:28;17.13;;;5.25;;
24151;SDS011;12311;50.866;4.332;2023-04-07T05:43:54;13.85;;;5.18;;
24151;SDS011;12311;50.866;4.332;2023-04-07T05:46:20;17.10;;;4.97;;
24151;SDS011;12311;50.866;4.332;2023-04-07T05:48:45;11.30;;;4.93;;
24151;SDS011;12311;50.866;4.332;2023-04-07T05:51:11;12.20;;;4.25;;
24151;SDS011;12311;50.866;4.332;2023-04-07T05:53:36;16.25;;;5.22;;
24151;SDS011;12311;50.866;4.332;2023-04-07T05:56:02;17.00;;;5.13;;
24151;SDS011;12311;50.866;4.332;2023-04-07T05:58:28;15.18;;;4.53;;
24151;SDS011;12311;50.866;4.332;2023-04-07T06:00:53;14.27;;;4.32;;
24151;SDS011;12311;50.866;4.332;2023-04-07T06:03:19;13.80;;;4.90;;
24151;SDS011;12311;50.866;4.332;2023-04-07T06:05:45;15.90;;;4.90;;
24151;SDS011;12311;50.866;4.332;2023-04-07T06:08:11;14.40;;;4.97;;
24151;SDS011;12311;50.866;4.332;2023-04-07T06:10:37;15.73;;;5.82;;
24151;SDS011;12311;50.866;4.332;2023-04-07T06:13:03;18.38;;;4.95;;
24151;SDS011;12311;50.866;4.332;2023-04-07T06:15:29;9.88;;;4.05;;
24151;SDS011;12311;50.866;4.332;2023-04-07T06:17:55;15.05;;;5.25;;
24151;SDS011;12311;50.866;4.332;2023-04-07T06:20:22;11.43;;;4.13;;
24151;SDS011;12311;50.866;4.332;2023-04-07T06:22:48;7.63;;;4.55;;
24151;SDS011;12311;50.866;4.332;2023-04-07T06:25:14;22.80;;;5.72;;
24151;SDS011;12311;50.866;4.332;2023-04-07T06:27:39;13.05;;;4.70;;
24151;SDS011;12311;50.866;4.332;2023-04-07T06:30:05;12.35;;;5.38;;
24151;SDS011;12311;50.866;4.332;2023-04-07T06:32:32;16.42;;;5.18;;
24151;SDS011;12311;50.866;4.332;2023-04-07T06:34:58;10.20;;;5.03;;
24151;SDS011;12311;50.866;4.332;2023-04-07T06:37:23;12.05;;;3.83;;
24151;SDS011;12311;50.866;4.332;2023-04-07T06:39:50;8.05;;;3.83;;
24151;SDS011;12311;50.866;4.332;2023-04-07T06:42:16;12.57;;;5.60;;
24151;SDS011;12311;50.866;4.332;2023-04-07T06:44:41;11.90;;;4.40;;
24151;SDS011;12311;50.866;4.332;2023-04-07T06:47:07;13.80;;;4.90;;
24151;SDS011;12311;50.866;4.332;2023-04-07T06:49:33;14.73;;;5.22;;
24151;SDS011;12311;50.866;4.332;2023-04-07T06:51:59;9.63;;;3.92;;
24151;SDS011;12311;50.866;4.332;2023-04-07T06:54:25;10.05;;;3.38;;
24151;SDS011;12311;50.866;4.332;2023-04-07T06:56:51;10.55;;;3.95;;
24151;SDS011;12311;50.866;4.332;2023-04-07T06:59:16;9.27;;;3.85;;
24151;SDS011;12311;50.866;4.332;2023-04-07T07:01:42;15.80;;;5.70;;
24151;SDS011;12311;50.866;4.332;2023-04-07T07:04:08;10.15;;;5.50;;
24151;SDS011;12311;50.866;4.332;2023-04-07T07:06:34;10.73;;;4.18;;
24151;SDS011;12311;50.866;4.332;2023-04-07T07:08:59;10.68;;;4.03;;
24151;SDS011;12311;50.866;4.332;2023-04-07T07:11:27;10.73;;;4.30;;
24151;SDS011;12311;50.866;4.332;2023-04-07T07:13:53;11.93;;;3.55;;
24151;SDS011;12311;50.866;4.332;2023-04-07T07:16:19;10.98;;;3.50;;
24151;SDS011;12311;50.866;4.332;2023-04-07T07:18:47;11.30;;;4.15;;
24151;SDS011;12311;50.866;4.332;2023-04-07T07:21:13;8.95;;;3.42;;
24151;SDS011;12311;50.866;4.332;2023-04-07T07:23:39;13.20;;;3.70;;
24151;SDS011;12311;50.866;4.332;2023-04-07T07:26:05;8.95;;;3.83;;
24151;SDS011;12311;50.866;4.332;2023-04-07T07:28:30;9.43;;;4.07;;
24151;SDS011;12311;50.866;4.332;2023-04-07T07:30:56;9.10;;;3.42;;
24151;SDS011;12311;50.866;4.332;2023-04-07T07:33:21;6.97;;;3.20;;
24151;SDS011;12311;50.866;4.332;2023-04-07T07:35:47;8.90;;;3.78;;
24151;SDS011;12311;50.866;4.332;2023-04-07T07:38:13;6.57;;;2.80;;
24151;SDS011;12311;50.866;4.332;2023-04-07T07:40:39;10.85;;;3.03;;
24151;SDS011;12311;50.866;4.332;2023-04-07T07:43:05;16.63;;;2.80;;
24151;SDS011;12311;50.866;4.332;2023-04-07T07:45:30;12.15;;;3.30;;
24151;SDS011;12311;50.866;4.332;2023-04-07T07:47:56;21.83;;;3.15;;
24151;SDS011;12311;50.866;4.332;2023-04-07T07:50:22;9.80;;;4.05;;
24151;SDS011;12311;50.866;4.332;2023-04-07T07:52:48;13.32;;;3.78;;
24151;SDS011;12311;50.866;4.332;2023-04-07T07:55:13;6.88;;;3.67;;
24151;SDS011;12311;50.866;4.332;2023-04-07T07:57:39;12.30;;;3.22;;
24151;SDS011;12311;50.866;4.332;2023-04-07T08:00:05;7.13;;;2.97;;
24151;SDS011;12311;50.866;4.332;2023-04-07T08:02:31;5.65;;;2.78;;
24151;SDS011;12311;50.866;4.332;2023-04-07T08:04:57;8.80;;;3.38;;
24151;SDS011;12311;50.866;4.332;2023-04-07T08:07:24;14.85;;;3.78;;
24151;SDS011;12311;50.866;4.332;2023-04-07T08:09:51;16.05;;;3.72;;
24151;SDS011;12311;50.866;4.332;2023-04-07T08:12:17;17.20;;;5.15;;
24151;SDS011;12311;50.866;4.332;2023-04-07T08:14:43;4.10;;;3.08;;
24151;SDS011;12311;50.866;4.332;2023-04-07T08:17:08;6.63;;;2.75;;
24151;SDS011;12311;50.866;4.332;2023-04-07T08:19:34;5.55;;;2.33;;
24151;SDS011;12311;50.866;4.332;2023-04-07T08:22:00;3.70;;;1.70;;
24151;SDS011;12311;50.866;4.332;2023-04-07T08:24:27;6.88;;;2.58;;
24151;SDS011;12311;50.866;4.332;2023-04-07T08:26:53;3.45;;;1.67;;
24151;SDS011;12311;50.866;4.332;2023-04-07T08:29:18;8.32;;;1.38;;
24151;SDS011;12311;50.866;4.332;2023-04-07T08:31:44;3.10;;;1.52;;
24151;SDS011;12311;50.866;4.332;2023-04-07T08:34:10;3.88;;;2.08;;
24151;SDS011;12311;50.866;4.332;2023-04-07T08:36:37;5.00;;;1.60;;
24151;SDS011;12311;50.866;4.332;2023-04-07T08:39:03;3.53;;;2.10;;
24151;SDS011;12311;50.866;4.332;2023-04-07T08:41:32;4.97;;;1.70;;
24151;SDS011;12311;50.866;4.332;2023-04-07T08:46:27;5.38;;;2.08;;
24151;SDS011;12311;50.866;4.332;2023-04-07T08:48:53;2.33;;;1.42;;
24151;SDS011;12311;50.866;4.332;2023-04-07T08:51:25;3.33;;;1.83;;
24151;SDS011;12311;50.866;4.332;2023-04-07T08:53:53;2.60;;;1.33;;
24151;SDS011;12311;50.866;4.332;2023-04-07T08:56:22;3.58;;;1.30;;
24151;SDS011;12311;50.866;4.332;2023-04-07T08:58:49;1.90;;;1.33;;
24151;SDS011;12311;50.866;4.332;2023-04-07T09:01:16;2.00;;;1.42;;
24151;SDS011;12311;50.866;4.332;2023-04-07T09:03:43;5.05;;;1.92;;
24151;SDS011;12311;50.866;4.332;2023-04-07T09:06:10;1.85;;;1.17;;
24151;SDS011;12311;50.866;4.332;2023-04-07T09:08:36;2.90;;;1.63;;
24151;SDS011;12311;50.866;4.332;2023-04-07T09:11:01;2.55;;;1.20;;
24151;SDS011;12311;50.866;4.332;2023-04-07T09:13:27;2.35;;;1.50;;
24151;SDS011;12311;50.866;4.332;2023-04-07T09:15:53;2.30;;;1.65;;
24151;SDS011;12311;50.866;4.332;2023-04-07T09:18:20;2.45;;;1.52;;
24151;SDS011;12311;50.866;4.332;2023-04-07T09:23:26;3.10;;;0.73;;
24151;SDS011;12311;50.866;4.332;2023-04-07T09:26:17;0.98;;;0.60;;
24151;SDS011;12311;50.866;4.332;2023-04-07T09:34:30;3.88;;;1.98;;
24151;SDS011;12311;50.866;4.332;2023-04-07T09:36:57;6.43;;;1.40;;
24151;SDS011;12311;50.866;4.332;2023-04-07T09:39:23;6.70;;;1.50;;
24151;SDS011;12311;50.866;4.332;2023-04-07T09:41:49;2.13;;;1.00;;
24151;SDS011;12311;50.866;4.332;2023-04-07T09:44:16;3.72;;;0.80;;
24151;SDS011;12311;50.866;4.332;2023-04-07T09:46:52;1.02;;;0.80;;
24151;SDS011;12311;50.866;4.332;2023-04-07T09:49:23;0.63;;;0.57;;
24151;SDS011;12311;50.866;4.332;2023-04-07T09:51:53;0.80;;;0.70;;
24151;SDS011;12311;50.866;4.332;2023-04-07T09:54:33;4.47;;;0.70;;
24151;SDS011;12311;50.866;4.332;2023-04-07T09:57:00;2.25;;;0.60;;
24151;SDS011;12311;50.866;4.332;2023-04-07T09:59:27;2.00;;;0.90;;
24151;SDS011;12311;50.866;4.332;2023-04-07T10:01:54;1.23;;;0.80;;
24151;SDS011;12311;50.866;4.332;2023-04-07T10:04:20;2.35;;;0.68;;
24151;SDS011;12311;50.866;4.332;2023-04-07T10:06:46;1.45;;;0.93;;
24151;SDS011;12311;50.866;4.332;2023-04-07T10:09:12;0.80;;;0.65;;
24151;SDS011;12311;50.866;4.332;2023-04-07T10:11:39;0.95;;;0.75;;
24151;SDS011;12311;50.866;4.332;2023-04-07T10:14:06;0.55;;;0.55;;
24151;SDS011;12311;50.866;4.332;2023-04-07T10:16:34;1.95;;;1.08;;
24151;SDS011;12311;50.866;4.332;2023-04-07T10:19:01;1.30;;;0.70;;
24151;SDS011;12311;50.866;4.332;2023-04-07T10:21:28;1.75;;;0.90;;
24151;SDS011;12311;50.866;4.332;2023-04-07T10:23:58;2.78;;;1.27;;
24151;SDS011;12311;50.866;4.332;2023-04-07T10:26:32;2.15;;;1.42;;
24151;SDS011;12311;50.866;4.332;2023-04-07T10:29:05;1.48;;;1.10;;
24151;SDS011;12311;50.866;4.332;2023-04-07T10:31:36;2.53;;;1.42;;
24151;SDS011;12311;50.866;4.332;2023-04-07T10:34:02;2.83;;;1.38;;
24151;SDS011;12311;50.866;4.332;2023-04-07T10:36:29;2.25;;;1.20;;
24151;SDS011;12311;50.866;4.332;2023-04-07T10:41:37;3.78;;;1.20;;
24151;SDS011;12311;50.866;4.332;2023-04-07T10:44:08;4.70;;;1.77;;
24151;SDS011;12311;50.866;4.332;2023-04-07T10:49:09;4.93;;;1.60;;
24151;SDS011;12311;50.866;4.332;2023-04-07T10:51:37;9.93;;;3.10;;
24151;SDS011;12311;50.866;4.332;2023-04-07T10:54:19;8.13;;;2.22;;
24151;SDS011;12311;50.866;4.332;2023-04-07T10:59:33;2.90;;;1.40;;
24151;SDS011;12311;50.866;4.332;2023-04-07T11:04:41;5.15;;;1.15;;
24151;SDS011;12311;50.866;4.332;2023-04-07T11:07:11;1.63;;;1.15;;
24151;SDS011;12311;50.866;4.332;2023-04-07T11:09:38;2.60;;;1.33;;
24151;SDS011;12311;50.866;4.332;2023-04-07T11:12:05;1.63;;;1.13;;
24151;SDS011;12311;50.866;4.332;2023-04-07T11:14:31;2.22;;;1.10;;
24151;SDS011;12311;50.866;4.332;2023-04-07T11:16:58;5.53;;;1.58;;
24151;SDS011;12311;50.866;4.332;2023-04-07T11:19:27;4.28;;;1.17;;
24151;SDS011;12311;50.866;4.332;2023-04-07T11:22:12;3.83;;;1.40;;
24151;SDS011;12311;50.866;4.332;2023-04-07T11:24:39;2.83;;;1.10;;
24151;SDS011;12311;50.866;4.332;2023-04-07T11:27:04;3.60;;;0.88;;
24151;SDS011;12311;50.866;4.332;2023-04-07T11:29:37;2.42;;;1.40;;
24151;SDS011;12311;50.866;4.332;2023-04-07T11:32:03;1.83;;;1.42;;
24151;SDS011;12311;50.866;4.332;2023-04-07T11:34:29;2.17;;;1.33;;
24151;SDS011;12311;50.866;4.332;2023-04-07T11:36:56;2.95;;;1.15;;
24151;SDS011;12311;50.866;4.332;2023-04-07T11:39:24;4.35;;;1.10;;
24151;SDS011;12311;50.866;4.332;2023-04-07T11:41:55;4.90;;;1.58;;
24151;SDS011;12311;50.866;4.332;2023-04-07T11:44:21;1.95;;;1.30;;
24151;SDS011;12311;50.866;4.332;2023-04-07T11:47:00;8.52;;;2.30;;
24151;SDS011;12311;50.866;4.332;2023-04-07T11:49:27;4.38;;;1.02;;
24151;SDS011;12311;50.866;4.332;2023-04-07T11:52:00;4.05;;;1.48;;
24151;SDS011;12311;50.866;4.332;2023-04-07T11:54:37;3.20;;;1.23;;
24151;SDS011;12311;50.866;4.332;2023-04-07T11:57:06;1.90;;;1.00;;
24151;SDS011;12311;50.866;4.332;2023-04-07T11:59:36;7.82;;;1.25;;
24151;SDS011;12311;50.866;4.332;2023-04-07T12:02:02;3.75;;;1.75;;
24151;SDS011;12311;50.866;4.332;2023-04-07T12:04:28;2.08;;;1.30;;
24151;SDS011;12311;50.866;4.332;2023-04-07T12:06:55;1.45;;;1.20;;
24151;SDS011;12311;50.866;4.332;2023-04-07T12:09:35;2.88;;;0.90;;
24151;SDS011;12311;50.866;4.332;2023-04-07T12:12:02;6.25;;;1.75;;
24151;SDS011;12311;50.866;4.332;2023-04-07T12:14:32;4.30;;;0.90;;
24151;SDS011;12311;50.866;4.332;2023-04-07T12:16:58;1.33;;;1.23;;
24151;SDS011;12311;50.866;4.332;2023-04-07T12:19:27;2.10;;;0.85;;
24151;SDS011;12311;50.866;4.332;2023-04-07T12:21:54;4.18;;;1.00;;
24151;SDS011;12311;50.866;4.332;2023-04-07T12:24:20;7.70;;;1.08;;
24151;SDS011;12311;50.866;4.332;2023-04-07T12:26:47;2.10;;;0.75;;
24151;SDS011;12311;50.866;4.332;2023-04-07T12:29:13;1.38;;;1.02;;
24151;SDS011;12311;50.866;4.332;2023-04-07T12:31:41;3.13;;;1.20;;
24151;SDS011;12311;50.866;4.332;2023-04-07T12:34:07;3.00;;;0.82;;
24151;SDS011;12311;50.866;4.332;2023-04-07T12:36:33;1.77;;;1.33;;
24151;SDS011;12311;50.866;4.332;2023-04-07T12:38:59;1.52;;;0.98;;
24151;SDS011;12311;50.866;4.332;2023-04-07T12:41:25;12.55;;;1.60;;
24151;SDS011;12311;50.866;4.332;2023-04-07T12:43:50;8.52;;;1.75;;
24151;SDS011;12311;50.866;4.332;2023-04-07T12:46:16;3.47;;;1.77;;
24151;SDS011;12311;50.866;4.332;2023-04-07T12:48:42;1.92;;;1.30;;
24151;SDS011;12311;50.866;4.332;2023-04-07T12:51:08;2.45;;;1.25;;
24151;SDS011;12311;50.866;4.332;2023-04-07T12:53:34;1.15;;;0.98;;
24151;SDS011;12311;50.866;4.332;2023-04-07T12:56:00;1.27;;;0.90;;
24151;SDS011;12311;50.866;4.332;2023-04-07T12:58:25;2.08;;;0.95;;
24151;SDS011;12311;50.866;4.332;2023-04-07T13:00:52;1.35;;;0.73;;
24151;SDS011;12311;50.866;4.332;2023-04-07T13:03:17;2.58;;;1.15;;
24151;SDS011;12311;50.866;4.332;2023-04-07T13:05:43;5.68;;;1.35;;
24151;SDS011;12311;50.866;4.332;2023-04-07T13:08:09;2.17;;;1.05;;
24151;SDS011;12311;50.866;4.332;2023-04-07T13:10:35;2.40;;;1.67;;
24151;SDS011;12311;50.866;4.332;2023-04-07T13:13:00;4.32;;;1.30;;
24151;SDS011;12311;50.866;4.332;2023-04-07T13:15:26;2.33;;;1.20;;
24151;SDS011;12311;50.866;4.332;2023-04-07T13:17:52;1.92;;;1.50;;
24151;SDS011;12311;50.866;4.332;2023-04-07T13:20:19;5.25;;;1.67;;
24151;SDS011;12311;50.866;4.332;2023-04-07T13:22:45;5.10;;;1.58;;
24151;SDS011;12311;50.866;4.332;2023-04-07T13:25:11;6.68;;;1.40;;
24151;SDS011;12311;50.866;4.332;2023-04-07T13:27:37;3.22;;;1.10;;
24151;SDS011;12311;50.866;4.332;2023-04-07T13:30:02;9.93;;;1.42;;
24151;SDS011;12311;50.866;4.332;2023-04-07T13:32:28;5.60;;;1.00;;
24151;SDS011;12311;50.866;4.332;2023-04-07T13:34:54;3.30;;;0.98;;
24151;SDS011;12311;50.866;4.332;2023-04-07T13:37:20;1.73;;;1.00;;
24151;SDS011;12311;50.866;4.332;2023-04-07T13:39:46;3.53;;;1.20;;
24151;SDS011;12311;50.866;4.332;2023-04-07T13:42:12;2.15;;;0.90;;
24151;SDS011;12311;50.866;4.332;2023-04-07T13:44:40;3.03;;;0.80;;
24151;SDS011;12311;50.866;4.332;2023-04-07T13:47:09;3.00;;;1.17;;
24151;SDS011;12311;50.866;4.332;2023-04-07T13:49:35;2.38;;;1.35;;
24151;SDS011;12311;50.866;4.332;2023-04-07T13:52:01;1.13;;;0.80;;
24151;SDS011;12311;50.866;4.332;2023-04-07T13:54:26;1.02;;;0.85;;
24151;SDS011;12311;50.866;4.332;2023-04-07T13:56:52;2.13;;;1.00;;
24151;SDS011;12311;50.866;4.332;2023-04-07T13:59:18;1.50;;;1.00;;
24151;SDS011;12311;50.866;4.332;2023-04-07T14:01:43;3.35;;;0.57;;
24151;SDS011;12311;50.866;4.332;2023-04-07T14:04:09;0.88;;;0.60;;
24151;SDS011;12311;50.866;4.332;2023-04-07T14:06:35;1.90;;;1.00;;
24151;SDS011;12311;50.866;4.332;2023-04-07T14:09:02;3.08;;;0.98;;
24151;SDS011;12311;50.866;4.332;2023-04-07T14:11:28;5.20;;;1.60;;
24151;SDS011;12311;50.866;4.332;2023-04-07T14:13:54;4.57;;;0.85;;
24151;SDS011;12311;50.866;4.332;2023-04-07T14:16:22;2.03;;;0.88;;
24151;SDS011;12311;50.866;4.332;2023-04-07T14:18:49;5.47;;;1.95;;
24151;SDS011;12311;50.866;4.332;2023-04-07T14:21:15;2.47;;;1.08;;
24151;SDS011;12311;50.866;4.332;2023-04-07T14:23:41;1.95;;;1.15;;
24151;SDS011;12311;50.866;4.332;2023-04-07T14:26:10;2.15;;;1.08;;
24151;SDS011;12311;50.866;4.332;2023-04-07T14:28:36;5.10;;;1.30;;
24151;SDS011;12311;50.866;4.332;2023-04-07T14:31:02;1.20;;;1.00;;
24151;SDS011;12311;50.866;4.332;2023-04-07T14:33:28;2.30;;;1.10;;
24151;SDS011;12311;50.866;4.332;2023-04-07T14:35:53;4.07;;;1.25;;
24151;SDS011;12311;50.866;4.332;2023-04-07T14:38:19;3.35;;;1.33;;
24151;SDS011;12311;50.866;4.332;2023-04-07T14:40:50;3.20;;;1.48;;
24151;SDS011;12311;50.866;4.332;2023-04-07T14:43:16;6.45;;;1.42;;
24151;SDS011;12311;50.866;4.332;2023-04-07T14:45:42;3.15;;;1.33;;
24151;SDS011;12311;50.866;4.332;2023-04-07T14:48:09;1.35;;;0.82;;
24151;SDS011;12311;50.866;4.332;2023-04-07T14:50:35;2.63;;;1.15;;
24151;SDS011;12311;50.866;4.332;2023-04-07T14:53:01;1.73;;;0.73;;
24151;SDS011;12311;50.866;4.332;2023-04-07T14:55:27;1.63;;;0.90;;
24151;SDS011;12311;50.866;4.332;2023-04-07T14:57:54;1.00;;;0.73;;
24151;SDS011;12311;50.866;4.332;2023-04-07T15:00:20;0.70;;;0.70;;
24151;SDS011;12311;50.866;4.332;2023-04-07T15:02:46;4.22;;;1.23;;
24151;SDS011;12311;50.866;4.332;2023-04-07T15:05:12;1.85;;;0.68;;
24151;SDS011;12311;50.866;4.332;2023-04-07T15:07:38;4.03;;;0.70;;
24151;SDS011;12311;50.866;4.332;2023-04-07T15:10:03;5.93;;;0.88;;
24151;SDS011;12311;50.866;4.332;2023-04-07T15:12:29;3.78;;;0.93;;
24151;SDS011;12311;50.866;4.332;2023-04-07T15:14:57;0.57;;;0.57;;
24151;SDS011;12311;50.866;4.332;2023-04-07T15:17:22;1.05;;;0.80;;
24151;SDS011;12311;50.866;4.332;2023-04-07T15:19:48;1.05;;;0.95;;
24151;SDS011;12311;50.866;4.332;2023-04-07T15:22:14;3.08;;;1.33;;
24151;SDS011;12311;50.866;4.332;2023-04-07T15:24:39;1.65;;;0.90;;
24151;SDS011;12311;50.866;4.332;2023-04-07T15:27:05;2.58;;;0.98;;
24151;SDS011;12311;50.866;4.332;2023-04-07T15:29:31;1.67;;;1.17;;
24151;SDS011;12311;50.866;4.332;2023-04-07T15:31:57;3.05;;;1.30;;
24151;SDS011;12311;50.866;4.332;2023-04-07T15:34:23;1.35;;;1.02;;
24151;SDS011;12311;50.866;4.332;2023-04-07T15:36:48;3.88;;;0.95;;
24151;SDS011;12311;50.866;4.332;2023-04-07T15:39:14;2.58;;;0.82;;
24151;SDS011;12311;50.866;4.332;2023-04-07T15:41:41;3.25;;;1.00;;
24151;SDS011;12311;50.866;4.332;2023-04-07T15:44:06;3.50;;;1.15;;
24151;SDS011;12311;50.866;4.332;2023-04-07T15:46:32;0.93;;;0.77;;
24151;SDS011;12311;50.866;4.332;2023-04-07T15:48:58;1.40;;;0.65;;
24151;SDS011;12311;50.866;4.332;2023-04-07T15:51:24;1.90;;;0.80;;
24151;SDS011;12311;50.866;4.332;2023-04-07T15:53:51;4.63;;;1.40;;
24151;SDS011;12311;50.866;4.332;2023-04-07T15:56:17;3.10;;;1.00;;
24151;SDS011;12311;50.866;4.332;2023-04-07T15:58:43;5.65;;;1.20;;
24151;SDS011;12311;50.866;4.332;2023-04-07T16:01:09;3.47;;;1.05;;
24151;SDS011;12311;50.866;4.332;2023-04-07T16:03:35;2.13;;;0.88;;
24151;SDS011;12311;50.866;4.332;2023-04-07T16:06:01;1.58;;;1.00;;
24151;SDS011;12311;50.866;4.332;2023-04-07T16:08:26;1.27;;;0.98;;
24151;SDS011;12311;50.866;4.332;2023-04-07T16:10:52;4.63;;;1.13;;
24151;SDS011;12311;50.866;4.332;2023-04-07T16:13:18;2.75;;;1.00;;
24151;SDS011;12311;50.866;4.332;2023-04-07T16:15:43;9.13;;;1.50;;
24151;SDS011;12311;50.866;4.332;2023-04-07T16:18:09;1.13;;;0.63;;
24151;SDS011;12311;50.866;4.332;2023-04-07T16:20:36;1.38;;;0.93;;
24151;SDS011;12311;50.866;4.332;2023-04-07T16:23:02;1.05;;;0.95;;
24151;SDS011;12311;50.866;4.332;2023-04-07T16:25:27;2.97;;;0.85;;
24151;SDS011;12311;50.866;4.332;2023-04-07T16:27:53;1.17;;;0.70;;
24151;SDS011;12311;50.866;4.332;2023-04-07T16:30:19;2.72;;;0.70;;
24151;SDS011;12311;50.866;4.332;2023-04-07T16:32:45;2.17;;;0.85;;
24151;SDS011;12311;50.866;4.332;2023-04-07T16:35:14;8.35;;;1.63;;
24151;SDS011;12311;50.866;4.332;2023-04-07T16:37:40;1.02;;;0.82;;
24151;SDS011;12311;50.866;4.332;2023-04-07T16:40:07;2.47;;;0.80;;
24151;SDS011;12311;50.866;4.332;2023-04-07T16:42:34;1.98;;;0.80;;
24151;SDS011;12311;50.866;4.332;2023-04-07T16:45:00;1.75;;;1.10;;
24151;SDS011;12311;50.866;4.332;2023-04-07T16:47:26;2.25;;;1.15;;
24151;SDS011;12311;50.866;4.332;2023-04-07T16:49:53;2.70;;;1.08;;
24151;SDS011;12311;50.866;4.332;2023-04-07T16:52:19;5.18;;;1.25;;
24151;SDS011;12311;50.866;4.332;2023-04-07T16:54:46;3.20;;;1.23;;
24151;SDS011;12311;50.866;4.332;2023-04-07T16:57:11;1.05;;;0.80;;
24151;SDS011;12311;50.866;4.332;2023-04-07T16:59:37;0.75;;;0.75;;
24151;SDS011;12311;50.866;4.332;2023-04-07T17:02:07;1.45;;;0.95;;
24151;SDS011;12311;50.866;4.332;2023-04-07T17:07:01;1.20;;;0.90;;
24151;SDS011;12311;50.866;4.332;2023-04-07T17:09:26;3.42;;;1.10;;
24151;SDS011;12311;50.866;4.332;2023-04-07T17:11:52;2.88;;;1.30;;
24151;SDS011;12311;50.866;4.332;2023-04-07T17:14:19;0.95;;;0.80;;
24151;SDS011;12311;50.866;4.332;2023-04-07T17:16:44;7.57;;;1.75;;
24151;SDS011;12311;50.866;4.332;2023-04-07T17:19:10;2.22;;;1.35;;
24151;SDS011;12311;50.866;4.332;2023-04-07T17:21:36;1.05;;;0.60;;
24151;SDS011;12311;50.866;4.332;2023-04-07T17:24:01;1.27;;;0.70;;
24151;SDS011;12311;50.866;4.332;2023-04-07T17:26:27;4.30;;;0.90;;
24151;SDS011;12311;50.866;4.332;2023-04-07T17:28:53;3.13;;;1.52;;
24151;SDS011;12311;50.866;4.332;2023-04-07T17:31:18;3.42;;;0.80;;
24151;SDS011;12311;50.866;4.332;2023-04-07T17:33:44;1.95;;;0.77;;
24151;SDS011;12311;50.866;4.332;2023-04-07T17:36:11;1.00;;;0.70;;
24151;SDS011;12311;50.866;4.332;2023-04-07T17:38:37;2.30;;;1.48;;
24151;SDS011;12311;50.866;4.332;2023-04-07T17:41:02;2.85;;;1.17;;
24151;SDS011;12311;50.866;4.332;2023-04-07T17:43:28;1.98;;;0.73;;
24151;SDS011;12311;50.866;4.332;2023-04-07T17:45:54;1.05;;;0.88;;
24151;SDS011;12311;50.866;4.332;2023-04-07T17:48:20;2.03;;;1.00;;
24151;SDS011;12311;50.866;4.332;2023-04-07T17:50:47;5.63;;;1.05;;
24151;SDS011;12311;50.866;4.332;2023-04-07T17:53:12;0.82;;;0.70;;
24151;SDS011;12311;50.866;4.332;2023-04-07T17:55:38;0.88;;;0.70;;
24151;SDS011;12311;50.866;4.332;2023-04-07T17:58:07;1.88;;;1.20;;
24151;SDS011;12311;50.866;4.332;2023-04-07T18:00:33;3.60;;;0.93;;
24151;SDS011;12311;50.866;4.332;2023-04-07T18:02:59;1.98;;;0.98;;
24151;SDS011;12311;50.866;4.332;2023-04-07T18:05:25;1.63;;;1.02;;
24151;SDS011;12311;50.866;4.332;2023-04-07T18:07:51;1.58;;;0.95;;
24151;SDS011;12311;50.866;4.332;2023-04-07T18:10:18;0.90;;;0.80;;
24151;SDS011;12311;50.866;4.332;2023-04-07T18:12:44;10.23;;;1.60;;
24151;SDS011;12311;50.866;4.332;2023-04-07T18:15:10;2.15;;;1.25;;
24151;SDS011;12311;50.866;4.332;2023-04-07T18:17:36;2.20;;;1.30;;
24151;SDS011;12311;50.866;4.332;2023-04-07T18:20:02;2.83;;;1.33;;
24151;SDS011;12311;50.866;4.332;2023-04-07T18:22:28;3.40;;;1.15;;
24151;SDS011;12311;50.866;4.332;2023-04-07T18:24:55;1.08;;;0.98;;
24151;SDS011;12311;50.866;4.332;2023-04-07T18:27:21;4.00;;;1.10;;
24151;SDS011;12311;50.866;4.332;2023-04-07T18:29:49;3.28;;;1.85;;
24151;SDS011;12311;50.866;4.332;2023-04-07T18:32:15;1.80;;;1.45;;
24151;SDS011;12311;50.866;4.332;2023-04-07T18:34:41;2.28;;;0.90;;
24151;SDS011;12311;50.866;4.332;2023-04-07T18:37:06;2.55;;;1.35;;
24151;SDS011;12311;50.866;4.332;2023-04-07T18:39:32;1.33;;;1.02;;
24151;SDS011;12311;50.866;4.332;2023-04-07T18:41:58;2.80;;;0.88;;
24151;SDS011;12311;50.866;4.332;2023-04-07T18:44:24;1.40;;;1.10;;
24151;SDS011;12311;50.866;4.332;2023-04-07T18:46:50;2.58;;;1.10;;
24151;SDS011;12311;50.866;4.332;2023-04-07T18:49:15;1.77;;;1.00;;
24151;SDS011;12311;50.866;4.332;2023-04-07T18:51:42;0.60;;;0.60;;
24151;SDS011;12311;50.866;4.332;2023-04-07T18:54:09;2.75;;;1.05;;
24151;SDS011;12311;50.866;4.332;2023-04-07T18:56:36;5.85;;;1.30;;
24151;SDS011;12311;50.866;4.332;2023-04-07T18:59:02;1.83;;;1.60;;
24151;SDS011;12311;50.866;4.332;2023-04-07T19:01:28;1.13;;;0.80;;
24151;SDS011;12311;50.866;4.332;2023-04-07T19:03:53;0.95;;;0.80;;
24151;SDS011;12311;50.866;4.332;2023-04-07T19:06:21;1.65;;;1.00;;
24151;SDS011;12311;50.866;4.332;2023-04-07T19:08:47;4.72;;;1.17;;
24151;SDS011;12311;50.866;4.332;2023-04-07T19:11:13;5.43;;;1.23;;
24151;SDS011;12311;50.866;4.332;2023-04-07T19:13:39;1.90;;;0.90;;
24151;SDS011;12311;50.866;4.332;2023-04-07T19:16:05;1.75;;;0.60;;
24151;SDS011;12311;50.866;4.332;2023-04-07T19:18:31;2.30;;;1.27;;
24151;SDS011;12311;50.866;4.332;2023-04-07T19:20:58;3.88;;;1.27;;
24151;SDS011;12311;50.866;4.332;2023-04-07T19:23:24;3.30;;;1.85;;
24151;SDS011;12311;50.866;4.332;2023-04-07T19:25:50;2.33;;;1.45;;
24151;SDS011;12311;50.866;4.332;2023-04-07T19:28:15;4.55;;;1.30;;
24151;SDS011;12311;50.866;4.332;2023-04-07T19:30:41;2.85;;;1.45;;
24151;SDS011;12311;50.866;4.332;2023-04-07T19:33:07;2.08;;;0.98;;
24151;SDS011;12311;50.866;4.332;2023-04-07T19:35:33;1.52;;;1.05;;
24151;SDS011;12311;50.866;4.332;2023-04-07T19:38:01;2.65;;;1.17;;
24151;SDS011;12311;50.866;4.332;2023-04-07T19:40:28;3.90;;;1.27;;
24151;SDS011;12311;50.866;4.332;2023-04-07T19:42:55;2.92;;;1.23;;
24151;SDS011;12311;50.866;4.332;2023-04-07T19:45:21;3.25;;;1.40;;
24151;SDS011;12311;50.866;4.332;2023-04-07T19:47:46;5.72;;;1.58;;
24151;SDS011;12311;50.866;4.332;2023-04-07T19:50:12;2.08;;;1.08;;
24151;SDS011;12311;50.866;4.332;2023-04-07T19:52:41;3.72;;;1.42;;
24151;SDS011;12311;50.866;4.332;2023-04-07T19:55:09;3.13;;;1.67;;
24151;SDS011;12311;50.866;4.332;2023-04-07T19:57:35;1.75;;;1.25;;
24151;SDS011;12311;50.866;4.332;2023-04-07T20:00:01;5.65;;;1.27;;
24151;SDS011;12311;50.866;4.332;2023-04-07T20:02:28;2.22;;;1.77;;
24151;SDS011;12311;50.866;4.332;2023-04-07T20:04:53;3.80;;;1.33;;
24151;SDS011;12311;50.866;4.332;2023-04-07T20:07:19;6.85;;;1.58;;
24151;SDS011;12311;50.866;4.332;2023-04-07T20:09:46;3.47;;;1.10;;
24151;SDS011;12311;50.866;4.332;2023-04-07T20:12:14;2.75;;;1.35;;
24151;SDS011;12311;50.866;4.332;2023-04-07T20:14:41;3.78;;;1.13;;
24151;SDS011;12311;50.866;4.332;2023-04-07T20:17:07;3.28;;;1.23;;
24151;SDS011;12311;50.866;4.332;2023-04-07T20:19:32;5.63;;;2.30;;
24151;SDS011;12311;50.866;4.332;2023-04-07T20:21:58;2.70;;;1.60;;
24151;SDS011;12311;50.866;4.332;2023-04-07T20:24:24;14.02;;;1.70;;
